sensor_id;sensor_type;location;lat;lon;timestamp;pressure;altitude;pressure_sealevel;temperature;humidity
5954;BME280;3002;42.642;24.812;2023-04-27T00:01:48;95838.44;;;12.36;72.03
5954;BME280;3002;42.642;24.812;2023-04-27T00:04:14;95866.78;;;12.51;73.24
5954;BME280;3002;42.642;24.812;2023-04-27T00:06:41;95872.00;;;12.65;74.67
5954;BME280;3002;42.642;24.812;2023-04-27T00:09:07;95823.34;;;12.09;73.97
5954;BME280;3002;42.642;24.812;2023-04-27T00:11:33;95894.31;;;12.56;71.70
5954;BME280;3002;42.642;24.812;2023-04-27T00:13:58;95888.66;;;12.67;74.88
5954;BME280;3002;42.642;24.812;2023-04-27T00:16:24;95879.63;;;12.54;75.00
5954;BME280;3002;42.642;24.812;2023-04-27T00:18:50;95893.66;;;12.51;78.42
5954;BME280;3002;42.642;24.812;2023-04-27T00:21:16;95882.66;;;12.13;76.78
5954;BME280;3002;42.642;24.812;2023-04-27T00:23:42;95891.97;;;12.07;75.43
5954;BME280;3002;42.642;24.812;2023-04-27T00:26:07;95893.75;;;12.28;76.42
5954;BME280;3002;42.642;24.812;2023-04-27T00:28:33;95909.31;;;12.00;72.58
5954;BME280;3002;42.642;24.812;2023-04-27T00:30:58;95881.28;;;12.32;76.72
5954;BME280;3002;42.642;24.812;2023-04-27T00:33:24;95895.84;;;12.31;79.40
5954;BME280;3002;42.642;24.812;2023-04-27T00:35:49;95904.56;;;11.97;77.26
5954;BME280;3002;42.642;24.812;2023-04-27T00:38:15;95909.88;;;12.28;71.20
5954;BME280;3002;42.642;24.812;2023-04-27T00:40:40;95905.75;;;12.14;77.86
5954;BME280;3002;42.642;24.812;2023-04-27T00:43:06;95875.53;;;12.08;76.80
5954;BME280;3002;42.642;24.812;2023-04-27T00:45:41;95928.31;;;12.44;72.60
5954;BME280;3002;42.642;24.812;2023-04-27T00:48:08;95913.00;;;12.13;75.43
5954;BME280;3002;42.642;24.812;2023-04-27T00:50:34;95874.88;;;12.02;77.62
5954;BME280;3002;42.642;24.812;2023-04-27T00:53:00;95889.31;;;11.84;74.81
5954;BME280;3002;42.642;24.812;2023-04-27T00:55:26;95904.75;;;12.10;69.43
5954;BME280;3002;42.642;24.812;2023-04-27T00:57:51;95925.69;;;12.21;72.70
5954;BME280;3002;42.642;24.812;2023-04-27T01:00:17;95903.84;;;12.23;65.92
5954;BME280;3002;42.642;24.812;2023-04-27T01:02:43;95914.88;;;12.52;67.75
5954;BME280;3002;42.642;24.812;2023-04-27T01:05:08;95944.38;;;12.26;71.33
5954;BME280;3002;42.642;24.812;2023-04-27T01:07:38;95935.19;;;12.27;70.93
5954;BME280;3002;42.642;24.812;2023-04-27T01:10:05;95931.97;;;12.17;68.98
5954;BME280;3002;42.642;24.812;2023-04-27T01:12:31;95935.53;;;12.35;67.64
5954;BME280;3002;42.642;24.812;2023-04-27T01:14:57;95938.97;;;12.18;70.88
5954;BME280;3002;42.642;24.812;2023-04-27T01:17:22;95945.78;;;11.93;68.39
5954;BME280;3002;42.642;24.812;2023-04-27T01:19:48;95945.41;;;12.08;66.01
5954;BME280;3002;42.642;24.812;2023-04-27T01:22:15;95898.47;;;12.14;64.84
5954;BME280;3002;42.642;24.812;2023-04-27T01:24:41;95937.19;;;12.13;66.79
5954;BME280;3002;42.642;24.812;2023-04-27T01:27:06;95922.69;;;11.92;69.48
5954;BME280;3002;42.642;24.812;2023-04-27T01:29:32;95946.88;;;12.23;67.51
5954;BME280;3002;42.642;24.812;2023-04-27T01:31:58;95937.00;;;12.10;66.33
5954;BME280;3002;42.642;24.812;2023-04-27T01:34:23;95943.94;;;12.02;68.00
5954;BME280;3002;42.642;24.812;2023-04-27T01:36:49;95896.03;;;11.73;69.06
5954;BME280;3002;42.642;24.812;2023-04-27T01:39:14;95945.63;;;11.89;67.96
5954;BME280;3002;42.642;24.812;2023-04-27T01:41:40;95960.19;;;11.97;67.52
5954;BME280;3002;42.642;24.812;2023-04-27T01:44:06;95911.00;;;11.88;65.89
5954;BME280;3002;42.642;24.812;2023-04-27T01:46:31;95927.03;;;12.01;67.22
5954;BME280;3002;42.642;24.812;2023-04-27T01:48:57;95951.25;;;12.10;67.20
5954;BME280;3002;42.642;24.812;2023-04-27T01:51:22;95928.06;;;11.69;67.58
5954;BME280;3002;42.642;24.812;2023-04-27T01:53:48;95924.44;;;11.88;68.35
5954;BME280;3002;42.642;24.812;2023-04-27T01:56:13;95941.00;;;12.12;67.24
5954;BME280;3002;42.642;24.812;2023-04-27T01:58:39;95971.31;;;12.44;67.22
5954;BME280;3002;42.642;24.812;2023-04-27T02:01:04;95967.66;;;12.00;67.67
5954;BME280;3002;42.642;24.812;2023-04-27T02:03:30;95983.91;;;12.26;66.71
5954;BME280;3002;42.642;24.812;2023-04-27T02:05:55;95974.41;;;12.28;66.29
5954;BME280;3002;42.642;24.812;2023-04-27T02:08:21;95950.13;;;12.11;67.16
5954;BME280;3002;42.642;24.812;2023-04-27T02:10:47;95970.81;;;12.02;67.83
5954;BME280;3002;42.642;24.812;2023-04-27T02:13:12;95973.41;;;12.16;67.99
5954;BME280;3002;42.642;24.812;2023-04-27T02:15:38;95991.09;;;12.08;67.51
5954;BME280;3002;42.642;24.812;2023-04-27T02:18:04;95949.50;;;12.05;65.85
5954;BME280;3002;42.642;24.812;2023-04-27T02:20:30;95966.91;;;11.86;67.75
5954;BME280;3002;42.642;24.812;2023-04-27T02:22:56;95950.59;;;12.04;66.32
5954;BME280;3002;42.642;24.812;2023-04-27T02:25:21;95948.53;;;12.01;66.61
5954;BME280;3002;42.642;24.812;2023-04-27T02:27:47;95963.38;;;12.30;66.13
5954;BME280;3002;42.642;24.812;2023-04-27T02:30:13;95980.56;;;12.29;64.70
5954;BME280;3002;42.642;24.812;2023-04-27T02:32:39;95971.47;;;12.39;63.02
5954;BME280;3002;42.642;24.812;2023-04-27T02:35:06;95971.34;;;12.52;64.19
5954;BME280;3002;42.642;24.812;2023-04-27T02:37:32;95953.84;;;12.24;64.72
5954;BME280;3002;42.642;24.812;2023-04-27T02:39:58;95981.53;;;12.24;62.98
5954;BME280;3002;42.642;24.812;2023-04-27T02:42:24;96000.44;;;12.42;64.03
5954;BME280;3002;42.642;24.812;2023-04-27T02:44:50;95984.34;;;12.19;63.39
5954;BME280;3002;42.642;24.812;2023-04-27T02:47:15;95979.56;;;12.16;64.64
5954;BME280;3002;42.642;24.812;2023-04-27T02:49:41;95988.59;;;12.51;63.30
5954;BME280;3002;42.642;24.812;2023-04-27T02:52:07;96009.41;;;12.77;62.53
5954;BME280;3002;42.642;24.812;2023-04-27T02:54:33;95982.22;;;12.08;64.30
5954;BME280;3002;42.642;24.812;2023-04-27T02:56:59;96010.03;;;12.34;64.63
5954;BME280;3002;42.642;24.812;2023-04-27T02:59:24;95990.19;;;12.21;63.66
5954;BME280;3002;42.642;24.812;2023-04-27T03:01:53;95966.31;;;12.59;62.09
5954;BME280;3002;42.642;24.812;2023-04-27T03:04:18;96006.97;;;12.18;64.21
5954;BME280;3002;42.642;24.812;2023-04-27T03:06:44;95984.56;;;12.31;64.70
5954;BME280;3002;42.642;24.812;2023-04-27T03:09:10;95983.94;;;12.35;63.00
5954;BME280;3002;42.642;24.812;2023-04-27T03:11:36;96014.22;;;12.18;64.80
5954;BME280;3002;42.642;24.812;2023-04-27T03:14:02;96011.94;;;12.33;64.69
5954;BME280;3002;42.642;24.812;2023-04-27T03:16:33;96003.13;;;12.42;62.39
5954;BME280;3002;42.642;24.812;2023-04-27T03:18:59;95996.03;;;12.23;62.50
5954;BME280;3002;42.642;24.812;2023-04-27T03:21:25;95984.97;;;12.56;62.19
5954;BME280;3002;42.642;24.812;2023-04-27T03:23:51;96014.69;;;12.51;62.08
5954;BME280;3002;42.642;24.812;2023-04-27T03:26:17;96041.47;;;12.65;62.62
5954;BME280;3002;42.642;24.812;2023-04-27T03:28:43;96019.19;;;12.33;60.83
5954;BME280;3002;42.642;24.812;2023-04-27T03:31:10;96032.19;;;12.40;61.15
5954;BME280;3002;42.642;24.812;2023-04-27T03:33:36;96044.53;;;12.72;60.49
5954;BME280;3002;42.642;24.812;2023-04-27T03:36:03;96042.91;;;13.10;59.66
5954;BME280;3002;42.642;24.812;2023-04-27T03:38:30;96017.78;;;12.75;59.14
5954;BME280;3002;42.642;24.812;2023-04-27T03:40:56;96042.53;;;12.95;58.62
5954;BME280;3002;42.642;24.812;2023-04-27T03:43:22;95999.34;;;12.51;58.41
5954;BME280;3002;42.642;24.812;2023-04-27T03:45:48;96019.53;;;11.64;67.21
5954;BME280;3002;42.642;24.812;2023-04-27T03:48:14;96016.72;;;12.14;67.76
5954;BME280;3002;42.642;24.812;2023-04-27T03:50:41;96051.59;;;12.59;64.31
5954;BME280;3002;42.642;24.812;2023-04-27T03:53:06;96000.78;;;12.57;61.62
5954;BME280;3002;42.642;24.812;2023-04-27T03:55:32;96020.75;;;13.13;59.32
5954;BME280;3002;42.642;24.812;2023-04-27T03:57:57;96020.34;;;12.89;60.33
5954;BME280;3002;42.642;24.812;2023-04-27T04:00:23;96030.56;;;13.18;58.80
5954;BME280;3002;42.642;24.812;2023-04-27T04:02:49;96069.16;;;13.45;59.25
5954;BME280;3002;42.642;24.812;2023-04-27T04:05:17;96051.06;;;13.28;58.40
5954;BME280;3002;42.642;24.812;2023-04-27T04:07:42;96068.50;;;13.39;57.88
5954;BME280;3002;42.642;24.812;2023-04-27T04:10:08;96073.19;;;12.76;62.00
5954;BME280;3002;42.642;24.812;2023-04-27T04:12:34;96083.13;;;13.64;59.71
5954;BME280;3002;42.642;24.812;2023-04-27T04:14:59;96090.25;;;14.03;60.06
5954;BME280;3002;42.642;24.812;2023-04-27T04:17:25;96090.84;;;13.39;57.76
5954;BME280;3002;42.642;24.812;2023-04-27T04:19:50;96058.13;;;13.15;58.64
5954;BME280;3002;42.642;24.812;2023-04-27T04:22:16;96035.44;;;12.99;59.93
5954;BME280;3002;42.642;24.812;2023-04-27T04:24:41;96086.81;;;13.20;60.45
5954;BME280;3002;42.642;24.812;2023-04-27T04:27:07;96072.06;;;13.08;59.90
5954;BME280;3002;42.642;24.812;2023-04-27T04:29:33;96080.13;;;13.91;57.05
5954;BME280;3002;42.642;24.812;2023-04-27T04:31:58;96076.13;;;13.46;57.82
5954;BME280;3002;42.642;24.812;2023-04-27T04:34:24;96070.75;;;13.63;58.24
5954;BME280;3002;42.642;24.812;2023-04-27T04:36:49;96055.97;;;13.43;59.12
5954;BME280;3002;42.642;24.812;2023-04-27T04:39:18;96089.31;;;14.08;56.82
5954;BME280;3002;42.642;24.812;2023-04-27T04:41:45;96068.72;;;13.86;56.02
5954;BME280;3002;42.642;24.812;2023-04-27T04:44:10;96058.22;;;14.02;54.50
5954;BME280;3002;42.642;24.812;2023-04-27T04:46:36;96089.78;;;13.92;54.54
5954;BME280;3002;42.642;24.812;2023-04-27T04:49:03;96098.66;;;13.84;56.00
5954;BME280;3002;42.642;24.812;2023-04-27T04:51:29;96107.97;;;13.61;56.22
5954;BME280;3002;42.642;24.812;2023-04-27T04:53:54;96121.81;;;13.94;54.96
5954;BME280;3002;42.642;24.812;2023-04-27T04:56:21;96094.16;;;14.66;53.19
5954;BME280;3002;42.642;24.812;2023-04-27T04:58:46;96101.28;;;14.71;53.89
5954;BME280;3002;42.642;24.812;2023-04-27T05:01:21;96099.03;;;15.49;51.04
5954;BME280;3002;42.642;24.812;2023-04-27T05:03:46;96117.81;;;14.43;55.24
5954;BME280;3002;42.642;24.812;2023-04-27T05:06:12;96117.84;;;14.17;57.55
5954;BME280;3002;42.642;24.812;2023-04-27T05:08:37;96134.66;;;14.58;54.21
5954;BME280;3002;42.642;24.812;2023-04-27T05:11:03;96078.31;;;12.86;57.78
5954;BME280;3002;42.642;24.812;2023-04-27T05:13:29;96112.56;;;13.60;55.00
5954;BME280;3002;42.642;24.812;2023-04-27T05:15:54;96126.88;;;14.65;52.33
5954;BME280;3002;42.642;24.812;2023-04-27T05:18:20;96091.78;;;14.39;54.91
5954;BME280;3002;42.642;24.812;2023-04-27T05:20:45;96127.38;;;15.73;49.05
5954;BME280;3002;42.642;24.812;2023-04-27T05:23:11;96127.78;;;16.58;48.30
5954;BME280;3002;42.642;24.812;2023-04-27T05:25:36;96093.97;;;15.77;48.62
5954;BME280;3002;42.642;24.812;2023-04-27T05:28:07;96119.47;;;15.89;48.98
5954;BME280;3002;42.642;24.812;2023-04-27T05:30:33;96150.97;;;16.68;49.07
5954;BME280;3002;42.642;24.812;2023-04-27T05:32:59;96152.59;;;17.88;46.48
5954;BME280;3002;42.642;24.812;2023-04-27T05:35:24;96132.91;;;16.39;47.83
5954;BME280;3002;42.642;24.812;2023-04-27T05:37:50;96139.56;;;17.08;48.11
5954;BME280;3002;42.642;24.812;2023-04-27T05:40:15;96161.41;;;16.91;46.43
5954;BME280;3002;42.642;24.812;2023-04-27T05:42:41;96129.09;;;16.40;48.19
5954;BME280;3002;42.642;24.812;2023-04-27T05:45:07;96161.34;;;16.45;49.66
5954;BME280;3002;42.642;24.812;2023-04-27T05:47:32;96159.13;;;18.11;46.75
5954;BME280;3002;42.642;24.812;2023-04-27T05:49:58;96115.28;;;16.66;47.48
5954;BME280;3002;42.642;24.812;2023-04-27T05:52:23;96149.09;;;16.60;48.02
5954;BME280;3002;42.642;24.812;2023-04-27T05:54:55;96163.97;;;16.54;49.49
5954;BME280;3002;42.642;24.812;2023-04-27T05:57:21;96138.97;;;16.57;48.98
5954;BME280;3002;42.642;24.812;2023-04-27T05:59:47;96175.28;;;17.71;46.00
5954;BME280;3002;42.642;24.812;2023-04-27T06:02:12;96160.16;;;18.35;45.72
5954;BME280;3002;42.642;24.812;2023-04-27T06:04:38;96161.34;;;18.09;44.56
5954;BME280;3002;42.642;24.812;2023-04-27T06:07:10;96135.78;;;16.55;47.42
5954;BME280;3002;42.642;24.812;2023-04-27T06:09:36;96156.75;;;16.04;50.48
5954;BME280;3002;42.642;24.812;2023-04-27T06:12:06;96173.72;;;16.88;48.42
5954;BME280;3002;42.642;24.812;2023-04-27T06:14:33;96150.97;;;15.64;50.32
5954;BME280;3002;42.642;24.812;2023-04-27T06:16:59;96155.25;;;17.27;46.71
5954;BME280;3002;42.642;24.812;2023-04-27T06:19:25;96158.75;;;18.13;45.89
5954;BME280;3002;42.642;24.812;2023-04-27T06:21:52;96143.63;;;16.69;50.42
5954;BME280;3002;42.642;24.812;2023-04-27T06:24:18;96160.56;;;16.24;50.57
5954;BME280;3002;42.642;24.812;2023-04-27T06:26:44;96191.47;;;16.44;51.15
5954;BME280;3002;42.642;24.812;2023-04-27T06:29:10;96160.69;;;15.86;49.86
5954;BME280;3002;42.642;24.812;2023-04-27T06:31:35;96140.03;;;15.51;49.58
5954;BME280;3002;42.642;24.812;2023-04-27T06:34:01;96140.75;;;15.02;50.88
5954;BME280;3002;42.642;24.812;2023-04-27T06:36:27;96145.72;;;14.82;51.64
5954;BME280;3002;42.642;24.812;2023-04-27T06:38:54;96168.66;;;15.14;50.93
5954;BME280;3002;42.642;24.812;2023-04-27T06:41:21;96173.56;;;16.10;50.37
5954;BME280;3002;42.642;24.812;2023-04-27T06:43:47;96172.66;;;16.05;49.17
5954;BME280;3002;42.642;24.812;2023-04-27T06:46:14;96164.34;;;15.51;50.89
5954;BME280;3002;42.642;24.812;2023-04-27T06:48:39;96161.91;;;14.82;51.62
5954;BME280;3002;42.642;24.812;2023-04-27T06:51:05;96163.34;;;15.26;51.03
5954;BME280;3002;42.642;24.812;2023-04-27T06:53:31;96154.38;;;16.02;50.13
5954;BME280;3002;42.642;24.812;2023-04-27T06:55:57;96163.69;;;16.14;48.38
5954;BME280;3002;42.642;24.812;2023-04-27T06:58:22;96132.25;;;16.42;47.33
5954;BME280;3002;42.642;24.812;2023-04-27T07:00:48;96163.22;;;16.66;46.50
5954;BME280;3002;42.642;24.812;2023-04-27T07:03:13;96163.28;;;16.24;49.28
5954;BME280;3002;42.642;24.812;2023-04-27T07:05:39;96168.78;;;16.69;46.65
5954;BME280;3002;42.642;24.812;2023-04-27T07:08:04;96152.44;;;16.24;47.98
5954;BME280;3002;42.642;24.812;2023-04-27T07:10:30;96147.03;;;16.45;47.72
5954;BME280;3002;42.642;24.812;2023-04-27T07:12:58;96156.16;;;15.98;47.67
5954;BME280;3002;42.642;24.812;2023-04-27T07:15:24;96149.28;;;15.80;47.72
5954;BME280;3002;42.642;24.812;2023-04-27T07:17:51;96136.22;;;16.24;47.30
5954;BME280;3002;42.642;24.812;2023-04-27T07:20:18;96174.13;;;16.78;46.07
5954;BME280;3002;42.642;24.812;2023-04-27T07:22:44;96163.59;;;15.81;46.80
5954;BME280;3002;42.642;24.812;2023-04-27T07:25:10;96155.38;;;15.98;46.63
5954;BME280;3002;42.642;24.812;2023-04-27T07:27:36;96178.78;;;16.36;46.80
5954;BME280;3002;42.642;24.812;2023-04-27T07:30:03;96185.91;;;16.40;46.46
5954;BME280;3002;42.642;24.812;2023-04-27T07:32:29;96164.91;;;16.37;46.55
5954;BME280;3002;42.642;24.812;2023-04-27T07:34:55;96165.91;;;16.12;46.66
5954;BME280;3002;42.642;24.812;2023-04-27T07:37:21;96184.91;;;16.03;47.00
5954;BME280;3002;42.642;24.812;2023-04-27T07:39:49;96191.38;;;16.11;47.39
5954;BME280;3002;42.642;24.812;2023-04-27T07:42:15;96153.97;;;15.92;47.46
5954;BME280;3002;42.642;24.812;2023-04-27T07:44:40;96179.31;;;16.29;45.41
5954;BME280;3002;42.642;24.812;2023-04-27T07:47:07;96178.00;;;16.89;45.06
5954;BME280;3002;42.642;24.812;2023-04-27T07:49:33;96192.56;;;16.43;45.11
5954;BME280;3002;42.642;24.812;2023-04-27T07:51:59;96178.88;;;17.63;42.60
5954;BME280;3002;42.642;24.812;2023-04-27T07:54:25;96177.53;;;17.57;42.54
5954;BME280;3002;42.642;24.812;2023-04-27T07:56:51;96183.31;;;17.67;43.17
5954;BME280;3002;42.642;24.812;2023-04-27T07:59:16;96186.13;;;17.47;42.76
5954;BME280;3002;42.642;24.812;2023-04-27T08:01:41;96184.56;;;17.58;43.07
5954;BME280;3002;42.642;24.812;2023-04-27T08:04:07;96174.06;;;17.81;42.50
5954;BME280;3002;42.642;24.812;2023-04-27T08:06:32;96178.38;;;18.75;40.73
5954;BME280;3002;42.642;24.812;2023-04-27T08:08:59;96164.44;;;18.48;40.24
5954;BME280;3002;42.642;24.812;2023-04-27T08:11:26;96168.44;;;18.66;40.96
5954;BME280;3002;42.642;24.812;2023-04-27T08:13:51;96170.09;;;18.99;40.40
5954;BME280;3002;42.642;24.812;2023-04-27T08:16:17;96200.22;;;19.22;39.41
5954;BME280;3002;42.642;24.812;2023-04-27T08:18:43;96199.63;;;19.44;39.90
5954;BME280;3002;42.642;24.812;2023-04-27T08:21:08;96181.91;;;21.33;37.30
5954;BME280;3002;42.642;24.812;2023-04-27T08:23:34;96150.69;;;22.67;35.74
5954;BME280;3002;42.642;24.812;2023-04-27T08:26:01;96173.41;;;23.05;34.52
5954;BME280;3002;42.642;24.812;2023-04-27T08:28:28;96203.75;;;24.18;32.95
5954;BME280;3002;42.642;24.812;2023-04-27T08:30:53;96181.25;;;23.06;33.45
5954;BME280;3002;42.642;24.812;2023-04-27T08:33:19;96185.47;;;21.60;34.61
5954;BME280;3002;42.642;24.812;2023-04-27T08:35:45;96175.72;;;21.36;36.26
5954;BME280;3002;42.642;24.812;2023-04-27T08:38:10;96159.69;;;21.58;35.99
5954;BME280;3002;42.642;24.812;2023-04-27T08:40:43;96176.94;;;23.90;33.73
5954;BME280;3002;42.642;24.812;2023-04-27T08:43:09;96181.53;;;23.35;33.86
5954;BME280;3002;42.642;24.812;2023-04-27T08:45:35;96175.72;;;23.43;33.53
5954;BME280;3002;42.642;24.812;2023-04-27T08:48:00;96172.66;;;21.64;36.56
5954;BME280;3002;42.642;24.812;2023-04-27T08:50:26;96165.03;;;21.51;35.99
5954;BME280;3002;42.642;24.812;2023-04-27T08:52:52;96168.84;;;21.69;36.47
5954;BME280;3002;42.642;24.812;2023-04-27T08:55:18;96173.31;;;22.34;35.69
5954;BME280;3002;42.642;24.812;2023-04-27T08:57:57;96153.50;;;21.15;36.34
5954;BME280;3002;42.642;24.812;2023-04-27T09:00:24;96178.59;;;21.24;35.72
5954;BME280;3002;42.642;24.812;2023-04-27T09:02:50;96167.00;;;21.77;35.63
5954;BME280;3002;42.642;24.812;2023-04-27T09:05:17;96164.41;;;21.15;34.61
5954;BME280;3002;42.642;24.812;2023-04-27T09:07:54;96151.69;;;21.00;34.94
5954;BME280;3002;42.642;24.812;2023-04-27T09:10:20;96183.47;;;21.57;34.50
5954;BME280;3002;42.642;24.812;2023-04-27T09:12:54;96183.38;;;22.56;34.22
5954;BME280;3002;42.642;24.812;2023-04-27T09:15:20;96170.69;;;21.61;35.20
5954;BME280;3002;42.642;24.812;2023-04-27T09:17:45;96180.16;;;21.02;35.51
5954;BME280;3002;42.642;24.812;2023-04-27T09:20:17;96145.84;;;21.70;35.22
5954;BME280;3002;42.642;24.812;2023-04-27T09:22:46;96180.53;;;20.62;35.89
5954;BME280;3002;42.642;24.812;2023-04-27T09:25:28;96160.16;;;20.95;36.89
5954;BME280;3002;42.642;24.812;2023-04-27T09:27:54;96166.06;;;20.03;36.31
5954;BME280;3002;42.642;24.812;2023-04-27T09:30:20;96155.72;;;20.67;37.15
5954;BME280;3002;42.642;24.812;2023-04-27T09:33:00;96160.53;;;20.54;37.60
5954;BME280;3002;42.642;24.812;2023-04-27T09:35:27;96166.84;;;20.39;37.42
5954;BME280;3002;42.642;24.812;2023-04-27T09:37:54;96166.50;;;20.05;37.51
5954;BME280;3002;42.642;24.812;2023-04-27T09:40:22;96165.97;;;20.74;36.91
5954;BME280;3002;42.642;24.812;2023-04-27T09:42:59;96155.06;;;20.74;37.30
5954;BME280;3002;42.642;24.812;2023-04-27T09:45:28;96156.53;;;21.10;35.82
5954;BME280;3002;42.642;24.812;2023-04-27T09:47:54;96153.38;;;20.46;36.45
5954;BME280;3002;42.642;24.812;2023-04-27T09:50:20;96160.00;;;20.10;37.57
5954;BME280;3002;42.642;24.812;2023-04-27T09:52:46;96154.25;;;20.70;36.57
5954;BME280;3002;42.642;24.812;2023-04-27T09:58:37;96161.63;;;21.11;36.93
5954;BME280;3002;42.642;24.812;2023-04-27T10:08:59;96146.63;;;20.40;36.86
5954;BME280;3002;42.642;24.812;2023-04-27T10:11:52;96131.56;;;20.66;36.19
5954;BME280;3002;42.642;24.812;2023-04-27T10:14:20;96134.53;;;22.21;35.03
5954;BME280;3002;42.642;24.812;2023-04-27T10:16:51;96157.22;;;22.25;33.26
5954;BME280;3002;42.642;24.812;2023-04-27T10:19:17;96162.03;;;22.09;32.86
5954;BME280;3002;42.642;24.812;2023-04-27T10:22:00;96147.97;;;22.37;33.00
5954;BME280;3002;42.642;24.812;2023-04-27T10:24:36;96157.72;;;22.34;33.13
5954;BME280;3002;42.642;24.812;2023-04-27T10:27:04;96149.88;;;23.37;32.83
5954;BME280;3002;42.642;24.812;2023-04-27T10:29:38;96156.09;;;22.93;31.91
5954;BME280;3002;42.642;24.812;2023-04-27T10:32:06;96148.50;;;23.61;31.90
5954;BME280;3002;42.642;24.812;2023-04-27T10:34:33;96167.69;;;23.61;31.94
5954;BME280;3002;42.642;24.812;2023-04-27T10:37:10;96159.72;;;24.55;31.19
5954;BME280;3002;42.642;24.812;2023-04-27T10:39:38;96177.59;;;25.26;29.58
5954;BME280;3002;42.642;24.812;2023-04-27T10:42:04;96157.19;;;25.20;28.97
5954;BME280;3002;42.642;24.812;2023-04-27T10:44:32;96173.13;;;24.78;29.72
5954;BME280;3002;42.642;24.812;2023-04-27T10:47:00;96168.22;;;22.92;32.37
5954;BME280;3002;42.642;24.812;2023-04-27T10:49:29;96158.50;;;21.82;33.07
5954;BME280;3002;42.642;24.812;2023-04-27T10:52:00;96134.13;;;22.53;32.93
5954;BME280;3002;42.642;24.812;2023-04-27T10:54:29;96166.31;;;22.66;33.34
5954;BME280;3002;42.642;24.812;2023-04-27T10:57:09;96178.75;;;21.77;33.15
5954;BME280;3002;42.642;24.812;2023-04-27T10:59:47;96173.28;;;22.30;32.85
5954;BME280;3002;42.642;24.812;2023-04-27T11:02:14;96147.81;;;21.96;32.50
5954;BME280;3002;42.642;24.812;2023-04-27T11:04:39;96158.59;;;22.42;32.72
5954;BME280;3002;42.642;24.812;2023-04-27T11:07:07;96155.47;;;21.87;32.31
5954;BME280;3002;42.642;24.812;2023-04-27T11:09:37;96174.75;;;21.71;33.39
5954;BME280;3002;42.642;24.812;2023-04-27T11:12:05;96181.06;;;22.58;31.45
5954;BME280;3002;42.642;24.812;2023-04-27T11:14:34;96167.88;;;21.35;32.61
5954;BME280;3002;42.642;24.812;2023-04-27T11:17:01;96156.34;;;21.22;32.32
5954;BME280;3002;42.642;24.812;2023-04-27T11:19:27;96167.22;;;21.64;32.69
5954;BME280;3002;42.642;24.812;2023-04-27T11:22:02;96156.47;;;22.02;30.50
5954;BME280;3002;42.642;24.812;2023-04-27T11:24:28;96173.13;;;24.09;30.37
5954;BME280;3002;42.642;24.812;2023-04-27T11:26:53;96171.88;;;24.62;28.21
5954;BME280;3002;42.642;24.812;2023-04-27T11:29:19;96147.44;;;25.76;29.16
5954;BME280;3002;42.642;24.812;2023-04-27T11:31:49;96170.03;;;24.83;28.70
5954;BME280;3002;42.642;24.812;2023-04-27T11:36:58;96156.16;;;23.86;29.53
5954;BME280;3002;42.642;24.812;2023-04-27T11:39:26;96192.78;;;23.67;29.83
5954;BME280;3002;42.642;24.812;2023-04-27T11:41:53;96190.22;;;23.92;28.86
5954;BME280;3002;42.642;24.812;2023-04-27T11:44:24;96194.56;;;24.59;28.48
5954;BME280;3002;42.642;24.812;2023-04-27T11:46:50;96162.06;;;24.53;28.35
5954;BME280;3002;42.642;24.812;2023-04-27T11:49:17;96183.28;;;24.67;28.35
5954;BME280;3002;42.642;24.812;2023-04-27T11:51:44;96162.28;;;23.65;28.77
5954;BME280;3002;42.642;24.812;2023-04-27T11:54:11;96183.19;;;23.87;29.32
5954;BME280;3002;42.642;24.812;2023-04-27T11:56:39;96186.69;;;23.88;29.45
5954;BME280;3002;42.642;24.812;2023-04-27T11:59:05;96186.19;;;24.34;28.06
5954;BME280;3002;42.642;24.812;2023-04-27T12:01:35;96177.63;;;23.80;28.83
5954;BME280;3002;42.642;24.812;2023-04-27T12:04:01;96172.50;;;24.30;28.10
5954;BME280;3002;42.642;24.812;2023-04-27T12:06:28;96183.88;;;25.41;28.08
5954;BME280;3002;42.642;24.812;2023-04-27T12:08:57;96175.88;;;22.50;30.88
5954;BME280;3002;42.642;24.812;2023-04-27T12:11:26;96167.84;;;23.75;30.09
5954;BME280;3002;42.642;24.812;2023-04-27T12:13:53;96166.19;;;25.09;28.47
5954;BME280;3002;42.642;24.812;2023-04-27T12:16:19;96148.78;;;24.63;28.15
5954;BME280;3002;42.642;24.812;2023-04-27T12:18:50;96171.53;;;22.18;31.81
5954;BME280;3002;42.642;24.812;2023-04-27T12:21:16;96169.13;;;21.37;32.48
5954;BME280;3002;42.642;24.812;2023-04-27T12:23:41;96186.00;;;21.47;31.80
5954;BME280;3002;42.642;24.812;2023-04-27T12:26:07;96189.69;;;23.31;30.74
5954;BME280;3002;42.642;24.812;2023-04-27T12:28:33;96184.38;;;23.49;30.94
5954;BME280;3002;42.642;24.812;2023-04-27T12:31:02;96197.09;;;24.19;28.41
5954;BME280;3002;42.642;24.812;2023-04-27T12:33:28;96179.19;;;22.36;31.08
5954;BME280;3002;42.642;24.812;2023-04-27T12:35:53;96177.06;;;21.96;31.12
5954;BME280;3002;42.642;24.812;2023-04-27T12:38:19;96199.72;;;22.53;30.78
5954;BME280;3002;42.642;24.812;2023-04-27T12:40:46;96159.06;;;21.22;32.43
5954;BME280;3002;42.642;24.812;2023-04-27T12:43:12;96200.41;;;20.82;33.77
5954;BME280;3002;42.642;24.812;2023-04-27T12:45:37;96185.34;;;20.69;33.63
5954;BME280;3002;42.642;24.812;2023-04-27T12:48:03;96190.66;;;20.26;34.59
5954;BME280;3002;42.642;24.812;2023-04-27T12:50:30;96192.72;;;19.63;35.34
5954;BME280;3002;42.642;24.812;2023-04-27T12:52:55;96190.72;;;19.16;36.34
5954;BME280;3002;42.642;24.812;2023-04-27T12:55:21;96194.25;;;19.16;36.41
5954;BME280;3002;42.642;24.812;2023-04-27T12:57:46;96206.88;;;19.24;35.94
5954;BME280;3002;42.642;24.812;2023-04-27T13:00:12;96172.47;;;19.01;36.13
5954;BME280;3002;42.642;24.812;2023-04-27T13:02:38;96199.16;;;19.27;36.35
5954;BME280;3002;42.642;24.812;2023-04-27T13:05:05;96184.16;;;18.73;36.52
5954;BME280;3002;42.642;24.812;2023-04-27T13:07:32;96215.63;;;19.02;36.39
5954;BME280;3002;42.642;24.812;2023-04-27T13:09:57;96191.00;;;20.79;32.78
5954;BME280;3002;42.642;24.812;2023-04-27T13:12:23;96193.53;;;20.88;32.88
5954;BME280;3002;42.642;24.812;2023-04-27T13:14:49;96163.44;;;19.12;35.08
5954;BME280;3002;42.642;24.812;2023-04-27T13:17:14;96179.91;;;19.63;35.02
5954;BME280;3002;42.642;24.812;2023-04-27T13:19:39;96181.72;;;18.56;36.24
5954;BME280;3002;42.642;24.812;2023-04-27T13:22:05;96208.22;;;19.46;35.21